sensor_id;sensor_type;location;lat;lon;timestamp;temperature;humidity
71237;DHT22;58984;51.960;5.582;2023-04-06T00:01:07;14.50;37.60
71237;DHT22;58984;51.960;5.582;2023-04-06T00:03:33;14.50;37.60
71237;DHT22;58984;51.960;5.582;2023-04-06T00:05:58;14.40;37.50
71237;DHT22;58984;51.960;5.582;2023-04-06T00:08:25;14.50;37.60
71237;DHT22;58984;51.960;5.582;2023-04-06T00:10:50;14.40;37.60
71237;DHT22;58984;51.960;5.582;2023-04-06T00:13:16;14.40;37.50
71237;DHT22;58984;51.960;5.582;2023-04-06T00:15:41;14.40;37.60
71237;DHT22;58984;51.960;5.582;2023-04-06T00:18:07;14.30;37.50
71237;DHT22;58984;51.960;5.582;2023-04-06T00:20:33;14.40;37.50
71237;DHT22;58984;51.960;5.582;2023-04-06T00:22:58;14.40;37.50
71237;DHT22;58984;51.960;5.582;2023-04-06T00:25:24;14.30;37.50
71237;DHT22;58984;51.960;5.582;2023-04-06T00:27:49;14.30;37.50
71237;DHT22;58984;51.960;5.582;2023-04-06T00:30:15;14.30;37.60
71237;DHT22;58984;51.960;5.582;2023-04-06T00:32:41;14.20;37.50
71237;DHT22;58984;51.960;5.582;2023-04-06T00:35:06;14.20;37.50
71237;DHT22;58984;51.960;5.582;2023-04-06T00:37:32;14.20;37.50
71237;DHT22;58984;51.960;5.582;2023-04-06T00:39:58;14.20;37.50
71237;DHT22;58984;51.960;5.582;2023-04-06T00:42:24;14.20;37.60
71237;DHT22;58984;51.960;5.582;2023-04-06T00:44:54;14.20;37.70
71237;DHT22;58984;51.960;5.582;2023-04-06T00:47:21;14.20;37.60
71237;DHT22;58984;51.960;5.582;2023-04-06T00:49:47;14.10;37.50
71237;DHT22;58984;51.960;5.582;2023-04-06T00:52:12;14.20;37.60
71237;DHT22;58984;51.960;5.582;2023-04-06T00:54:38;14.10;37.50
71237;DHT22;58984;51.960;5.582;2023-04-06T00:57:03;14.10;37.50
71237;DHT22;58984;51.960;5.582;2023-04-06T00:59:29;14.10;37.50
71237;DHT22;58984;51.960;5.582;2023-04-06T01:01:55;14.10;37.60
71237;DHT22;58984;51.960;5.582;2023-04-06T01:04:21;14.10;37.60
71237;DHT22;58984;51.960;5.582;2023-04-06T01:06:50;14.10;37.50
71237;DHT22;58984;51.960;5.582;2023-04-06T01:09:16;14.00;37.50
71237;DHT22;58984;51.960;5.582;2023-04-06T01:11:42;14.00;37.90
71237;DHT22;58984;51.960;5.582;2023-04-06T01:14:08;14.10;37.60
71237;DHT22;58984;51.960;5.582;2023-04-06T01:16:34;14.00;37.50
71237;DHT22;58984;51.960;5.582;2023-04-06T01:19:00;14.00;37.50
71237;DHT22;58984;51.960;5.582;2023-04-06T01:21:25;14.00;37.50
71237;DHT22;58984;51.960;5.582;2023-04-06T01:23:51;14.00;37.50
71237;DHT22;58984;51.960;5.582;2023-04-06T01:26:17;13.90;37.50
71237;DHT22;58984;51.960;5.582;2023-04-06T01:28:43;14.00;37.70
71237;DHT22;58984;51.960;5.582;2023-04-06T01:31:10;13.90;37.50
71237;DHT22;58984;51.960;5.582;2023-04-06T01:33:36;13.90;37.60
71237;DHT22;58984;51.960;5.582;2023-04-06T01:36:02;13.90;37.70
71237;DHT22;58984;51.960;5.582;2023-04-06T01:38:28;13.90;37.60
71237;DHT22;58984;51.960;5.582;2023-04-06T01:40:54;13.90;37.60
71237;DHT22;58984;51.960;5.582;2023-04-06T01:43:20;13.90;37.60
71237;DHT22;58984;51.960;5.582;2023-04-06T01:45:45;13.90;37.70
71237;DHT22;58984;51.960;5.582;2023-04-06T01:48:11;13.80;37.60
71237;DHT22;58984;51.960;5.582;2023-04-06T01:50:36;13.90;37.70
71237;DHT22;58984;51.960;5.582;2023-04-06T01:53:02;13.80;37.70
71237;DHT22;58984;51.960;5.582;2023-04-06T01:55:27;13.80;37.70
71237;DHT22;58984;51.960;5.582;2023-04-06T01:57:53;13.80;37.80
71237;DHT22;58984;51.960;5.582;2023-04-06T02:00:19;13.80;37.90
71237;DHT22;58984;51.960;5.582;2023-04-06T02:02:44;13.80;37.90
71237;DHT22;58984;51.960;5.582;2023-04-06T02:05:10;13.80;37.90
71237;DHT22;58984;51.960;5.582;2023-04-06T02:07:36;13.80;37.90
71237;DHT22;58984;51.960;5.582;2023-04-06T02:10:02;13.70;37.80
71237;DHT22;58984;51.960;5.582;2023-04-06T02:12:28;13.80;38.00
71237;DHT22;58984;51.960;5.582;2023-04-06T02:14:53;13.70;37.90
71237;DHT22;58984;51.960;5.582;2023-04-06T02:17:19;13.70;37.90
71237;DHT22;58984;51.960;5.582;2023-04-06T02:19:44;13.70;38.00
71237;DHT22;58984;51.960;5.582;2023-04-06T02:22:10;13.70;37.50
71237;DHT22;58984;51.960;5.582;2023-04-06T02:24:36;13.70;38.10
71237;DHT22;58984;51.960;5.582;2023-04-06T02:27:02;13.70;38.00
71237;DHT22;58984;51.960;5.582;2023-04-06T02:29:27;13.70;38.10
71237;DHT22;58984;51.960;5.582;2023-04-06T02:31:53;13.60;38.10
71237;DHT22;58984;51.960;5.582;2023-04-06T02:34:18;13.70;38.20
71237;DHT22;58984;51.960;5.582;2023-04-06T02:36:45;13.70;38.20
71237;DHT22;58984;51.960;5.582;2023-04-06T02:39:11;13.60;38.20
71237;DHT22;58984;51.960;5.582;2023-04-06T02:41:36;13.70;38.40
71237;DHT22;58984;51.960;5.582;2023-04-06T02:44:02;13.60;38.30
71237;DHT22;58984;51.960;5.582;2023-04-06T02:46:28;13.70;38.40
71237;DHT22;58984;51.960;5.582;2023-04-06T02:48:54;13.60;38.40
71237;DHT22;58984;51.960;5.582;2023-04-06T02:51:20;13.60;38.40
71237;DHT22;58984;51.960;5.582;2023-04-06T02:53:46;13.60;38.30
71237;DHT22;58984;51.960;5.582;2023-04-06T02:56:11;13.60;38.30
71237;DHT22;58984;51.960;5.582;2023-04-06T02:58:37;13.60;38.40
71237;DHT22;58984;51.960;5.582;2023-04-06T03:01:03;13.60;38.40
71237;DHT22;58984;51.960;5.582;2023-04-06T03:03:29;13.60;38.40
71237;DHT22;58984;51.960;5.582;2023-04-06T03:05:55;13.60;38.40
71237;DHT22;58984;51.960;5.582;2023-04-06T03:08:23;13.50;38.30
71237;DHT22;58984;51.960;5.582;2023-04-06T03:10:49;13.60;38.40
71237;DHT22;58984;51.960;5.582;2023-04-06T03:13:15;13.50;38.30
71237;DHT22;58984;51.960;5.582;2023-04-06T03:15:41;13.50;38.40
71237;DHT22;58984;51.960;5.582;2023-04-06T03:18:06;13.50;38.40
71237;DHT22;58984;51.960;5.582;2023-04-06T03:20:32;13.50;38.40
71237;DHT22;58984;51.960;5.582;2023-04-06T03:22:58;13.50;38.40
71237;DHT22;58984;51.960;5.582;2023-04-06T03:25:23;13.50;38.40
71237;DHT22;58984;51.960;5.582;2023-04-06T03:27:49;13.50;38.50
71237;DHT22;58984;51.960;5.582;2023-04-06T03:30:15;13.50;38.40
71237;DHT22;58984;51.960;5.582;2023-04-06T03:32:45;13.50;38.40
71237;DHT22;58984;51.960;5.582;2023-04-06T03:35:11;13.50;38.50
71237;DHT22;58984;51.960;5.582;2023-04-06T03:37:36;13.50;38.50
71237;DHT22;58984;51.960;5.582;2023-04-06T03:40:03;13.50;38.50
71237;DHT22;58984;51.960;5.582;2023-04-06T03:42:29;13.40;38.40
71237;DHT22;58984;51.960;5.582;2023-04-06T03:44:55;13.50;38.50
71237;DHT22;58984;51.960;5.582;2023-04-06T03:47:20;13.40;38.40
71237;DHT22;58984;51.960;5.582;2023-04-06T03:49:46;13.40;38.50
71237;DHT22;58984;51.960;5.582;2023-04-06T03:52:11;13.40;38.60
71237;DHT22;58984;51.960;5.582;2023-04-06T03:54:37;13.40;38.40
71237;DHT22;58984;51.960;5.582;2023-04-06T03:57:03;13.40;38.50
71237;DHT22;58984;51.960;5.582;2023-04-06T03:59:29;13.40;38.50
71237;DHT22;58984;51.960;5.582;2023-04-06T04:01:55;13.40;38.60
71237;DHT22;58984;51.960;5.582;2023-04-06T04:04:20;13.40;38.70
71237;DHT22;58984;51.960;5.582;2023-04-06T04:06:46;13.40;38.80
71237;DHT22;58984;51.960;5.582;2023-04-06T04:09:11;13.40;38.80
71237;DHT22;58984;51.960;5.582;2023-04-06T04:11:37;13.40;38.70
71237;DHT22;58984;51.960;5.582;2023-04-06T04:14:03;13.30;38.70
71237;DHT22;58984;51.960;5.582;2023-04-06T04:16:28;13.40;38.90
71237;DHT22;58984;51.960;5.582;2023-04-06T04:18:54;13.30;38.80
71237;DHT22;58984;51.960;5.582;2023-04-06T04:21:20;13.40;39.00
71237;DHT22;58984;51.960;5.582;2023-04-06T04:23:46;13.30;38.90
71237;DHT22;58984;51.960;5.582;2023-04-06T04:26:11;13.30;39.00
71237;DHT22;58984;51.960;5.582;2023-04-06T04:28:37;13.30;39.00
71237;DHT22;58984;51.960;5.582;2023-04-06T04:31:02;13.30;39.00
71237;DHT22;58984;51.960;5.582;2023-04-06T04:33:29;13.30;39.20
71237;DHT22;58984;51.960;5.582;2023-04-06T04:35:55;13.30;39.10
71237;DHT22;58984;51.960;5.582;2023-04-06T04:38:20;13.30;39.10
71237;DHT22;58984;51.960;5.582;2023-04-06T04:40:46;13.20;39.00
71237;DHT22;58984;51.960;5.582;2023-04-06T04:43:11;13.30;39.10
71237;DHT22;58984;51.960;5.582;2023-04-06T04:45:37;13.30;39.20
71237;DHT22;58984;51.960;5.582;2023-04-06T04:48:02;13.20;39.20
71237;DHT22;58984;51.960;5.582;2023-04-06T04:50:30;13.20;39.20
71237;DHT22;58984;51.960;5.582;2023-04-06T04:52:55;13.20;39.20
71237;DHT22;58984;51.960;5.582;2023-04-06T04:55:21;13.20;39.30
71237;DHT22;58984;51.960;5.582;2023-04-06T04:57:46;13.20;39.30
71237;DHT22;58984;51.960;5.582;2023-04-06T05:00:12;13.20;39.30
71237;DHT22;58984;51.960;5.582;2023-04-06T05:02:38;13.20;39.40
71237;DHT22;58984;51.960;5.582;2023-04-06T05:05:04;13.20;39.50
71237;DHT22;58984;51.960;5.582;2023-04-06T05:07:30;13.20;39.40
71237;DHT22;58984;51.960;5.582;2023-04-06T05:09:56;13.20;39.50
71237;DHT22;58984;51.960;5.582;2023-04-06T05:12:23;13.20;39.60
71237;DHT22;58984;51.960;5.582;2023-04-06T05:14:48;13.10;39.50
71237;DHT22;58984;51.960;5.582;2023-04-06T05:17:14;13.10;39.60
71237;DHT22;58984;51.960;5.582;2023-04-06T05:19:40;13.20;39.70
71237;DHT22;58984;51.960;5.582;2023-04-06T05:22:05;13.10;39.70
71237;DHT22;58984;51.960;5.582;2023-04-06T05:24:31;13.10;39.60
71237;DHT22;58984;51.960;5.582;2023-04-06T05:26:56;13.10;39.70
71237;DHT22;58984;51.960;5.582;2023-04-06T05:29:22;13.10;39.60
71237;DHT22;58984;51.960;5.582;2023-04-06T05:31:48;13.10;39.60
71237;DHT22;58984;51.960;5.582;2023-04-06T05:34:13;13.10;39.70
71237;DHT22;58984;51.960;5.582;2023-04-06T05:36:39;13.10;39.70
71237;DHT22;58984;51.960;5.582;2023-04-06T05:39:06;13.10;39.70
71237;DHT22;58984;51.960;5.582;2023-04-06T05:41:32;13.10;39.70
71237;DHT22;58984;51.960;5.582;2023-04-06T05:43:58;13.10;39.80
71237;DHT22;58984;51.960;5.582;2023-04-06T05:46:23;13.10;39.90
71237;DHT22;58984;51.960;5.582;2023-04-06T05:48:49;13.10;39.90
71237;DHT22;58984;51.960;5.582;2023-04-06T05:51:14;13.10;39.90
71237;DHT22;58984;51.960;5.582;2023-04-06T05:53:40;13.00;39.90
71237;DHT22;58984;51.960;5.582;2023-04-06T05:56:06;13.10;40.00
71237;DHT22;58984;51.960;5.582;2023-04-06T05:58:31;13.00;40.00
71237;DHT22;58984;51.960;5.582;2023-04-06T06:00:58;13.00;40.10
71237;DHT22;58984;51.960;5.582;2023-04-06T06:03:24;13.00;40.10
71237;DHT22;58984;51.960;5.582;2023-04-06T06:05:50;13.10;40.10
71237;DHT22;58984;51.960;5.582;2023-04-06T06:08:15;13.00;40.10
71237;DHT22;58984;51.960;5.582;2023-04-06T06:10:41;13.00;40.10
71237;DHT22;58984;51.960;5.582;2023-04-06T06:13:06;13.00;40.20
71237;DHT22;58984;51.960;5.582;2023-04-06T06:15:32;13.00;40.00
71237;DHT22;58984;51.960;5.582;2023-04-06T06:17:58;13.00;40.20
71237;DHT22;58984;51.960;5.582;2023-04-06T06:20:24;13.00;40.20
71237;DHT22;58984;51.960;5.582;2023-04-06T06:22:51;13.00;40.40
71237;DHT22;58984;51.960;5.582;2023-04-06T06:25:16;13.00;40.40
71237;DHT22;58984;51.960;5.582;2023-04-06T06:27:42;13.00;40.40
71237;DHT22;58984;51.960;5.582;2023-04-06T06:30:08;13.00;40.50
71237;DHT22;58984;51.960;5.582;2023-04-06T06:32:34;13.00;40.40
71237;DHT22;58984;51.960;5.582;2023-04-06T06:34:59;13.00;40.40
71237;DHT22;58984;51.960;5.582;2023-04-06T06:37:25;13.00;40.40
71237;DHT22;58984;51.960;5.582;2023-04-06T06:39:51;13.00;40.50
71237;DHT22;58984;51.960;5.582;2023-04-06T06:42:16;13.00;40.40
71237;DHT22;58984;51.960;5.582;2023-04-06T06:44:42;13.00;40.40
71237;DHT22;58984;51.960;5.582;2023-04-06T06:47:07;13.00;40.60
71237;DHT22;58984;51.960;5.582;2023-04-06T06:49:33;13.00;40.60
71237;DHT22;58984;51.960;5.582;2023-04-06T06:51:58;13.00;40.70
71237;DHT22;58984;51.960;5.582;2023-04-06T06:54:24;13.00;40.80
71237;DHT22;58984;51.960;5.582;2023-04-06T06:56:49;13.00;40.80
71237;DHT22;58984;51.960;5.582;2023-04-06T06:59:15;13.00;40.70
71237;DHT22;58984;51.960;5.582;2023-04-06T07:01:41;13.00;40.90
71237;DHT22;58984;51.960;5.582;2023-04-06T07:04:07;13.00;41.00
71237;DHT22;58984;51.960;5.582;2023-04-06T07:06:35;12.90;40.90
71237;DHT22;58984;51.960;5.582;2023-04-06T07:09:01;13.00;41.10
71237;DHT22;58984;51.960;5.582;2023-04-06T07:11:28;13.00;41.10
71237;DHT22;58984;51.960;5.582;2023-04-06T07:13:54;13.00;41.10
71237;DHT22;58984;51.960;5.582;2023-04-06T07:16:20;13.00;41.20
71237;DHT22;58984;51.960;5.582;2023-04-06T07:18:45;13.00;41.30
71237;DHT22;58984;51.960;5.582;2023-04-06T07:21:11;13.00;41.40
71237;DHT22;58984;51.960;5.582;2023-04-06T07:23:37;13.00;41.50
71237;DHT22;58984;51.960;5.582;2023-04-06T07:26:02;13.00;41.50
71237;DHT22;58984;51.960;5.582;2023-04-06T07:28:28;13.10;41.70
71237;DHT22;58984;51.960;5.582;2023-04-06T07:30:54;13.10;41.50
71237;DHT22;58984;51.960;5.582;2023-04-06T07:33:20;13.10;41.70
71237;DHT22;58984;51.960;5.582;2023-04-06T07:35:45;13.10;41.60
71237;DHT22;58984;51.960;5.582;2023-04-06T07:38:11;13.10;41.70
71237;DHT22;58984;51.960;5.582;2023-04-06T07:40:37;13.00;41.60
71237;DHT22;58984;51.960;5.582;2023-04-06T07:43:02;13.10;41.80
71237;DHT22;58984;51.960;5.582;2023-04-06T07:45:28;13.10;41.80
71237;DHT22;58984;51.960;5.582;2023-04-06T07:47:54;13.10;41.90
71237;DHT22;58984;51.960;5.582;2023-04-06T07:50:20;13.10;41.90
71237;DHT22;58984;51.960;5.582;2023-04-06T07:52:45;13.10;41.80
71237;DHT22;58984;51.960;5.582;2023-04-06T07:55:11;13.10;42.00
71237;DHT22;58984;51.960;5.582;2023-04-06T07:57:37;13.10;42.00
71237;DHT22;58984;51.960;5.582;2023-04-06T08:00:03;13.10;42.00
71237;DHT22;58984;51.960;5.582;2023-04-06T08:02:30;13.10;42.10
71237;DHT22;58984;51.960;5.582;2023-04-06T08:04:55;13.10;42.20
71237;DHT22;58984;51.960;5.582;2023-04-06T08:07:21;13.10;42.20
71237;DHT22;58984;51.960;5.582;2023-04-06T08:09:46;13.10;42.20
71237;DHT22;58984;51.960;5.582;2023-04-06T08:12:12;13.10;42.30
71237;DHT22;58984;51.960;5.582;2023-04-06T08:14:38;13.20;42.50
71237;DHT22;58984;51.960;5.582;2023-04-06T08:17:03;13.10;42.40
71237;DHT22;58984;51.960;5.582;2023-04-06T08:19:29;13.10;42.50
71237;DHT22;58984;51.960;5.582;2023-04-06T08:21:54;13.10;42.50
71237;DHT22;58984;51.960;5.582;2023-04-06T08:24:20;13.10;42.60
71237;DHT22;58984;51.960;5.582;2023-04-06T08:26:46;13.20;42.90
71237;DHT22;58984;51.960;5.582;2023-04-06T08:29:11;13.10;42.80
71237;DHT22;58984;51.960;5.582;2023-04-06T08:31:37;13.10;42.90
71237;DHT22;58984;51.960;5.582;2023-04-06T08:34:04;13.10;42.90
71237;DHT22;58984;51.960;5.582;2023-04-06T08:36:30;13.20;42.90
71237;DHT22;58984;51.960;5.582;2023-04-06T08:38:56;13.20;42.90
71237;DHT22;58984;51.960;5.582;2023-04-06T08:41:21;13.20;43.60
71237;DHT22;58984;51.960;5.582;2023-04-06T08:43:49;13.20;42.90
71237;DHT22;58984;51.960;5.582;2023-04-06T08:46:15;13.20;43.00
71237;DHT22;58984;51.960;5.582;2023-04-06T08:48:42;13.20;42.90
71237;DHT22;58984;51.960;5.582;2023-04-06T08:51:11;13.20;42.90
71237;DHT22;58984;51.960;5.582;2023-04-06T08:53:37;13.20;42.90
71237;DHT22;58984;51.960;5.582;2023-04-06T08:56:04;13.30;43.10
71237;DHT22;58984;51.960;5.582;2023-04-06T08:58:34;13.30;43.20
71237;DHT22;58984;51.960;5.582;2023-04-06T09:01:01;13.20;43.10
71237;DHT22;58984;51.960;5.582;2023-04-06T09:03:28;13.30;43.40
71237;DHT22;58984;51.960;5.582;2023-04-06T09:05:54;13.30;43.40
71237;DHT22;58984;51.960;5.582;2023-04-06T09:08:20;13.30;43.40
71237;DHT22;58984;51.960;5.582;2023-04-06T09:10:46;13.30;43.40
71237;DHT22;58984;51.960;5.582;2023-04-06T09:13:12;13.40;43.70
71237;DHT22;58984;51.960;5.582;2023-04-06T09:15:37;13.40;43.70
71237;DHT22;58984;51.960;5.582;2023-04-06T09:18:03;13.40;43.80
71237;DHT22;58984;51.960;5.582;2023-04-06T09:20:29;13.40;43.80
71237;DHT22;58984;51.960;5.582;2023-04-06T09:22:55;13.40;43.80
71237;DHT22;58984;51.960;5.582;2023-04-06T09:25:22;13.40;43.90
71237;DHT22;58984;51.960;5.582;2023-04-06T09:27:49;13.40;43.80
71237;DHT22;58984;51.960;5.582;2023-04-06T09:30:23;13.40;43.80
71237;DHT22;58984;51.960;5.582;2023-04-06T09:32:55;13.50;44.00
71237;DHT22;58984;51.960;5.582;2023-04-06T09:35:21;13.50;44.00
71237;DHT22;58984;51.960;5.582;2023-04-06T09:37:48;13.50;44.00
71237;DHT22;58984;51.960;5.582;2023-04-06T09:40:14;13.50;44.10
71237;DHT22;58984;51.960;5.582;2023-04-06T09:42:41;13.50;44.10
71237;DHT22;58984;51.960;5.582;2023-04-06T09:45:07;13.50;44.10
71237;DHT22;58984;51.960;5.582;2023-04-06T09:47:36;13.50;44.20
71237;DHT22;58984;51.960;5.582;2023-04-06T09:50:02;13.50;44.20
71237;DHT22;58984;51.960;5.582;2023-04-06T09:52:40;13.60;44.40
71237;DHT22;58984;51.960;5.582;2023-04-06T09:55:08;13.60;44.40
71237;DHT22;58984;51.960;5.582;2023-04-06T09:58:16;13.60;44.30
71237;DHT22;58984;51.960;5.582;2023-04-06T10:00:23;13.60;44.30
71237;DHT22;58984;51.960;5.582;2023-04-06T10:05:43;13.60;44.10
71237;DHT22;58984;51.960;5.582;2023-04-06T10:08:11;13.60;44.20
71237;DHT22;58984;51.960;5.582;2023-04-06T10:10:37;13.70;44.30
71237;DHT22;58984;51.960;5.582;2023-04-06T10:13:07;13.70;44.40
71237;DHT22;58984;51.960;5.582;2023-04-06T10:15:33;13.70;44.50
71237;DHT22;58984;51.960;5.582;2023-04-06T10:17:59;13.70;44.50
71237;DHT22;58984;51.960;5.582;2023-04-06T10:20:43;13.80;44.60
71237;DHT22;58984;51.960;5.582;2023-04-06T10:23:16;13.70;44.70
71237;DHT22;58984;51.960;5.582;2023-04-06T10:25:55;13.80;44.70
71237;DHT22;58984;51.960;5.582;2023-04-06T10:28:22;13.80;44.90
71237;DHT22;58984;51.960;5.582;2023-04-06T10:30:47;13.80;44.80
71237;DHT22;58984;51.960;5.582;2023-04-06T10:33:18;13.90;45.00
71237;DHT22;58984;51.960;5.582;2023-04-06T10:35:43;13.80;45.60
71237;DHT22;58984;51.960;5.582;2023-04-06T10:38:09;13.90;45.20
71237;DHT22;58984;51.960;5.582;2023-04-06T10:40:38;13.90;45.30
71237;DHT22;58984;51.960;5.582;2023-04-06T10:43:12;13.90;45.40
71237;DHT22;58984;51.960;5.582;2023-04-06T10:45:38;13.90;45.50
71237;DHT22;58984;51.960;5.582;2023-04-06T10:48:15;13.90;45.70
71237;DHT22;58984;51.960;5.582;2023-04-06T10:50:46;13.90;46.10
71237;DHT22;58984;51.960;5.582;2023-04-06T10:53:24;14.00;46.30
71237;DHT22;58984;51.960;5.582;2023-04-06T10:55:51;14.00;46.70
71237;DHT22;58984;51.960;5.582;2023-04-06T10:58:17;14.00;47.00
71237;DHT22;58984;51.960;5.582;2023-04-06T11:00:45;14.10;47.20
71237;DHT22;58984;51.960;5.582;2023-04-06T11:03:10;14.10;47.40
71237;DHT22;58984;51.960;5.582;2023-04-06T11:05:36;14.10;47.50
71237;DHT22;58984;51.960;5.582;2023-04-06T11:08:01;14.10;47.60
71237;DHT22;58984;51.960;5.582;2023-04-06T11:10:27;14.10;47.90
71237;DHT22;58984;51.960;5.582;2023-04-06T11:12:56;14.10;48.30
71237;DHT22;58984;51.960;5.582;2023-04-06T11:15:22;14.10;48.50
71237;DHT22;58984;51.960;5.582;2023-04-06T11:17:48;14.10;48.60
71237;DHT22;58984;51.960;5.582;2023-04-06T11:20:14;14.10;48.60
71237;DHT22;58984;51.960;5.582;2023-04-06T11:22:53;14.10;48.80
71237;DHT22;58984;51.960;5.582;2023-04-06T11:25:19;14.10;48.90
71237;DHT22;58984;51.960;5.582;2023-04-06T11:27:46;14.20;49.10
71237;DHT22;58984;51.960;5.582;2023-04-06T11:30:12;14.20;49.20
71237;DHT22;58984;51.960;5.582;2023-04-06T11:32:43;14.20;49.40
71237;DHT22;58984;51.960;5.582;2023-04-06T11:35:22;14.20;49.30
71237;DHT22;58984;51.960;5.582;2023-04-06T11:37:49;14.10;49.30
71237;DHT22;58984;51.960;5.582;2023-04-06T11:40:16;14.20;49.30
71237;DHT22;58984;51.960;5.582;2023-04-06T11:42:52;14.20;49.80
71237;DHT22;58984;51.960;5.582;2023-04-06T11:45:17;14.20;50.10
71237;DHT22;58984;51.960;5.582;2023-04-06T11:47:43;14.30;49.50
71237;DHT22;58984;51.960;5.582;2023-04-06T11:50:13;14.20;49.60
71237;DHT22;58984;51.960;5.582;2023-04-06T11:52:40;14.20;49.80
71237;DHT22;58984;51.960;5.582;2023-04-06T11:55:14;14.20;49.90
71237;DHT22;58984;51.960;5.582;2023-04-06T11:57:41;14.20;50.30
71237;DHT22;58984;51.960;5.582;2023-04-06T12:00:08;14.20;50.20
71237;DHT22;58984;51.960;5.582;2023-04-06T12:02:38;14.20;50.30
71237;DHT22;58984;51.960;5.582;2023-04-06T12:05:05;14.30;50.50
71237;DHT22;58984;51.960;5.582;2023-04-06T12:07:32;14.30;50.60
71237;DHT22;58984;51.960;5.582;2023-04-06T12:10:01;14.20;50.60
71237;DHT22;58984;51.960;5.582;2023-04-06T12:12:28;14.20;50.60
71237;DHT22;58984;51.960;5.582;2023-04-06T12:14:54;14.20;50.60
71237;DHT22;58984;51.960;5.582;2023-04-06T12:17:20;14.20;50.60
71237;DHT22;58984;51.960;5.582;2023-04-06T12:19:46;14.20;50.60
71237;DHT22;58984;51.960;5.582;2023-04-06T12:22:11;14.20;50.50
71237;DHT22;58984;51.960;5.582;2023-04-06T12:24:37;14.20;50.70
71237;DHT22;58984;51.960;5.582;2023-04-06T12:27:03;14.20;50.80
71237;DHT22;58984;51.960;5.582;2023-04-06T12:29:28;14.20;50.90
71237;DHT22;58984;51.960;5.582;2023-04-06T12:31:54;14.30;51.00
71237;DHT22;58984;51.960;5.582;2023-04-06T12:34:19;14.20;50.90
71237;DHT22;58984;51.960;5.582;2023-04-06T12:36:45;14.20;50.90
71237;DHT22;58984;51.960;5.582;2023-04-06T12:39:11;14.20;50.90
71237;DHT22;58984;51.960;5.582;2023-04-06T12:41:37;14.20;51.10
71237;DHT22;58984;51.960;5.582;2023-04-06T12:44:02;14.20;51.30
71237;DHT22;58984;51.960;5.582;2023-04-06T12:46:29;14.20;51.20
71237;DHT22;58984;51.960;5.582;2023-04-06T12:48:58;14.20;51.10
71237;DHT22;58984;51.960;5.582;2023-04-06T12:51:27;14.20;51.20
71237;DHT22;58984;51.960;5.582;2023-04-06T12:53:53;14.20;51.40
71237;DHT22;58984;51.960;5.582;2023-04-06T12:56:19;14.20;51.30
71237;DHT22;58984;51.960;5.582;2023-04-06T12:58:46;14.20;51.30
71237;DHT22;58984;51.960;5.582;2023-04-06T13:01:12;14.20;51.50
71237;DHT22;58984;51.960;5.582;2023-04-06T13:03:39;14.20;51.50
71237;DHT22;58984;51.960;5.582;2023-04-06T13:06:05;14.20;51.60
71237;DHT22;58984;51.960;5.582;2023-04-06T13:08:30;14.20;51.80
71237;DHT22;58984;51.960;5.582;2023-04-06T13:10:56;14.20;52.00
71237;DHT22;58984;51.960;5.582;2023-04-06T13:13:26;14.20;51.80
71237;DHT22;58984;51.960;5.582;2023-04-06T13:15:53;14.20;51.90
71237;DHT22;58984;51.960;5.582;2023-04-06T13:18:19;14.20;51.90
71237;DHT22;58984;51.960;5.582;2023-04-06T13:20:47;14.20;51.90
71237;DHT22;58984;51.960;5.582;2023-04-06T13:23:13;14.20;51.90
71237;DHT22;58984;51.960;5.582;2023-04-06T13:25:38;14.20;51.90
71237;DHT22;58984;51.960;5.582;2023-04-06T13:28:04;14.20;51.80
71237;DHT22;58984;51.960;5.582;2023-04-06T13:30:30;14.20;51.80
71237;DHT22;58984;51.960;5.582;2023-04-06T13:32:56;14.20;51.60
71237;DHT22;58984;51.960;5.582;2023-04-06T13:35:21;14.20;51.50
71237;DHT22;58984;51.960;5.582;2023-04-06T13:37:47;14.20;51.70
71237;DHT22;58984;51.960;5.582;2023-04-06T13:40:14;14.20;51.90
71237;DHT22;58984;51.960;5.582;2023-04-06T13:42:39;14.20;52.00
71237;DHT22;58984;51.960;5.582;2023-04-06T13:45:06;14.20;52.10
71237;DHT22;58984;51.960;5.582;2023-04-06T13:47:32;14.20;52.00
71237;DHT22;58984;51.960;5.582;2023-04-06T13:49:58;14.20;52.30
71237;DHT22;58984;51.960;5.582;2023-04-06T13:52:23;14.20;52.20
71237;DHT22;58984;51.960;5.582;2023-04-06T13:54:49;14.20;52.20
71237;DHT22;58984;51.960;5.582;2023-04-06T13:57:15;14.20;52.30
71237;DHT22;58984;51.960;5.582;2023-04-06T13:59:41;14.20;52.50
71237;DHT22;58984;51.960;5.582;2023-04-06T14:02:09;14.20;52.40
71237;DHT22;58984;51.960;5.582;2023-04-06T14:04:35;14.10;52.60
71237;DHT22;58984;51.960;5.582;2023-04-06T14:07:01;14.20;52.70
71237;DHT22;58984;51.960;5.582;2023-04-06T14:09:28;14.20;52.70
71237;DHT22;58984;51.960;5.582;2023-04-06T14:11:53;14.20;52.80
71237;DHT22;58984;51.960;5.582;2023-04-06T14:14:19;14.10;52.60
71237;DHT22;58984;51.960;5.582;2023-04-06T14:16:46;14.20;52.50
71237;DHT22;58984;51.960;5.582;2023-04-06T14:19:14;14.10;52.50
71237;DHT22;58984;51.960;5.582;2023-04-06T14:21:41;14.20;52.60
71237;DHT22;58984;51.960;5.582;2023-04-06T14:24:08;14.20;52.50
71237;DHT22;58984;51.960;5.582;2023-04-06T14:26:35;14.20;52.60
71237;DHT22;58984;51.960;5.582;2023-04-06T14:29:01;14.10;52.60
71237;DHT22;58984;51.960;5.582;2023-04-06T14:31:27;14.20;52.60
71237;DHT22;58984;51.960;5.582;2023-04-06T14:33:53;14.10;52.60
71237;DHT22;58984;51.960;5.582;2023-04-06T14:36:19;14.10;53.00
71237;DHT22;58984;51.960;5.582;2023-04-06T14:38:44;14.10;53.70
71237;DHT22;58984;51.960;5.582;2023-04-06T14:41:19;14.10;53.10
71237;DHT22;58984;51.960;5.582;2023-04-06T14:43:46;14.10;53.10
71237;DHT22;58984;51.960;5.582;2023-04-06T14:46:12;14.10;53.10
71237;DHT22;58984;51.960;5.582;2023-04-06T14:48:38;14.10;53.10
71237;DHT22;58984;51.960;5.582;2023-04-06T14:51:04;14.10;53.10
71237;DHT22;58984;51.960;5.582;2023-04-06T14:53:29;14.10;53.10
71237;DHT22;58984;51.960;5.582;2023-04-06T14:55:55;14.10;53.10
71237;DHT22;58984;51.960;5.582;2023-04-06T14:58:22;14.10;53.10
71237;DHT22;58984;51.960;5.582;2023-04-06T15:00:48;14.10;53.10
71237;DHT22;58984;51.960;5.582;2023-04-06T15:03:14;14.10;53.10
71237;DHT22;58984;51.960;5.582;2023-04-06T15:05:40;14.10;53.10
71237;DHT22;58984;51.960;5.582;2023-04-06T15:08:06;14.10;53.10
71237;DHT22;58984;51.960;5.582;2023-04-06T15:10:34;14.10;53.20
71237;DHT22;58984;51.960;5.582;2023-04-06T15:13:00;14.20;53.50
71237;DHT22;58984;51.960;5.582;2023-04-06T15:15:26;14.10;53.50
71237;DHT22;58984;51.960;5.582;2023-04-06T15:17:51;14.10;53.70
71237;DHT22;58984;51.960;5.582;2023-04-06T15:20:17;14.10;53.40
71237;DHT22;58984;51.960;5.582;2023-04-06T15:22:43;14.10;53.40
71237;DHT22;58984;51.960;5.582;2023-04-06T15:25:09;14.10;53.30
71237;DHT22;58984;51.960;5.582;2023-04-06T15:27:34;14.10;53.30